Time,TemperatureF,DewpointF,PressureIn,WindDirection,WindDirectionDegrees,WindSpeedMPH,WindSpeedGustMPH,Humidity,HourlyPrecipIn,Conditions,Clouds,dailyrainin,SoftwareType,DateUTC
2013-03-18 00:00:00,44.4,31.0,29.96,ESE,115,3.6,4.0,59,0.00,,CLR,0.00,VWS V14.01,2013-03-18 07:00:00,
2013-03-18 00:05:00,44.4,31.4,29.96,ESE,115,3.6,3.6,60,0.00,,CLR,0.00,VWS V14.01,2013-03-18 07:05:00,
2013-03-18 00:10:00,44.1,30.7,29.96,ESE,116,3.6,4.0,59,0.00,,CLR,0.00,VWS V14.01,2013-03-18 07:10:00,
2013-03-18 00:15:00,43.5,31.0,29.96,ESE,116,3.1,3.6,61,0.00,,CLR,0.00,VWS V14.01,2013-03-18 07:15:00,
2013-03-18 00:20:00,43.2,31.0,29.96,ESE,116,4.5,4.5,62,0.00,,CLR,0.00,VWS V14.01,2013-03-18 07:20:00,
2013-03-18 00:25:00,42.8,31.5,29.96,ESE,116,4.0,4.5,64,0.00,,CLR,0.00,VWS V14.01,2013-03-18 07:25:00,
2013-03-18 00:30:00,42.4,31.9,29.96,ESE,115,4.5,4.9,66,0.00,,CLR,0.00,VWS V14.01,2013-03-18 07:30:00,
2013-03-18 00:35:00,42.3,32.1,29.96,ESE,116,4.5,4.9,67,0.00,,CLR,0.00,VWS V14.01,2013-03-18 07:35:00,
2013-03-18 00:40:00,42.1,31.9,29.96,ESE,115,4.5,4.5,67,0.00,,CLR,0.00,VWS V14.01,2013-03-18 07:40:00,
2013-03-18 00:45:00,42.1,32.3,29.96,ESE,116,4.5,4.9,68,0.00,,CLR,0.00,VWS V14.01,2013-03-18 07:45:00,
2013-03-18 00:50:00,42.3,33.2,29.96,ESE,115,4.5,4.9,70,0.00,,CLR,0.00,VWS V14.01,2013-03-18 07:50:00,
2013-03-18 00:56:00,41.9,32.8,29.96,ESE,115,4.5,4.9,70,0.00,,CLR,0.00,VWS V14.01,2013-03-18 07:56:00,
2013-03-18 01:01:00,42.1,33.7,29.96,ESE,115,4.5,4.5,72,0.00,,CLR,0.00,VWS V14.01,2013-03-18 08:01:00,
2013-03-18 01:06:00,41.7,33.4,29.96,ESE,115,4.0,4.5,72,0.00,,CLR,0.00,VWS V14.01,2013-03-18 08:06:00,
2013-03-18 01:11:00,41.9,33.5,29.96,ESE,115,3.1,4.0,72,0.00,,CLR,0.00,VWS V14.01,2013-03-18 08:11:00,
2013-03-18 01:16:00,42.1,33.7,29.96,ESE,115,4.0,4.5,72,0.00,,CLR,0.00,VWS V14.01,2013-03-18 08:16:00,
2013-03-18 01:21:00,42.1,33.7,29.96,ESE,115,3.6,4.5,72,0.00,,CLR,0.00,VWS V14.01,2013-03-18 08:21:00,
2013-03-18 01:26:00,41.7,33.0,29.96,ESE,115,4.0,4.0,71,0.00,,CLR,0.00,VWS V14.01,2013-03-18 08:26:00,
2013-03-18 01:31:00,41.4,32.7,29.96,ESE,115,4.5,4.5,71,0.00,,CLR,0.00,VWS V14.01,2013-03-18 08:31:00,
2013-03-18 01:36:00,41.9,34.2,29.96,ESE,115,4.0,4.0,74,0.00,,CLR,0.00,VWS V14.01,2013-03-18 08:36:00,
2013-03-18 01:41:00,41.7,34.4,29.96,ESE,115,3.6,4.5,75,0.00,,CLR,0.00,VWS V14.01,2013-03-18 08:41:00,
2013-03-18 01:46:00,42.1,34.7,29.96,ESE,115,4.0,4.0,75,0.00,,CLR,0.00,VWS V14.01,2013-03-18 08:46:00,
2013-03-18 01:51:00,41.5,33.9,29.96,ESE,115,4.5,4.5,74,0.00,,CLR,0.00,VWS V14.01,2013-03-18 08:51:00,
2013-03-18 01:57:00,40.6,32.7,29.96,ESE,115,4.5,4.9,73,0.00,,CLR,0.00,VWS V14.01,2013-03-18 08:57:00,
2013-03-18 02:02:00,41.0,34.0,29.96,ESE,115,4.9,5.4,76,0.00,,CLR,0.00,VWS V14.01,2013-03-18 09:02:00,
2013-03-18 02:08:00,41.2,34.5,29.96,ESE,114,4.0,4.5,77,0.00,,CLR,0.00,VWS V14.01,2013-03-18 09:08:00,
2013-03-18 02:13:00,41.0,34.3,29.96,ESE,114,3.6,4.0,77,0.00,,CLR,0.00,VWS V14.01,2013-03-18 09:13:00,
2013-03-18 02:18:00,41.0,34.3,29.96,ESE,114,3.6,4.0,77,0.00,,CLR,0.00,VWS V14.01,2013-03-18 09:18:00,
2013-03-18 02:23:00,40.3,33.0,29.96,ESE,114,4.5,4.9,75,0.00,,CLR,0.00,VWS V14.01,2013-03-18 09:23:00,
2013-03-18 02:28:00,40.8,34.2,29.96,ESE,115,4.0,4.5,77,0.00,,CLR,0.00,VWS V14.01,2013-03-18 09:28:00,
2013-03-18 02:33:00,41.0,35.0,29.96,ESE,114,4.0,4.0,79,0.00,,CLR,0.00,VWS V14.01,2013-03-18 09:33:00,
2013-03-18 02:38:00,40.6,34.0,29.96,ESE,114,3.6,4.0,77,0.00,,CLR,0.00,VWS V14.01,2013-03-18 09:38:00,
2013-03-18 02:43:00,40.1,33.5,29.96,ESE,114,4.0,4.5,77,0.00,,CLR,0.00,VWS V14.01,2013-03-18 09:43:00,
2013-03-18 02:48:00,40.3,34.0,29.96,ESE,115,3.6,4.5,78,0.00,,CLR,0.00,VWS V14.01,2013-03-18 09:48:00,
2013-03-18 02:53:00,40.3,34.6,29.96,ESE,114,4.0,4.0,80,0.00,,CLR,0.00,VWS V14.01,2013-03-18 09:53:00,
2013-03-18 02:58:00,40.5,35.1,29.96,ESE,115,4.0,4.5,81,0.00,,CLR,0.00,VWS V14.01,2013-03-18 09:58:00,
2013-03-18 03:04:00,40.3,34.6,29.96,ESE,114,4.0,4.5,80,0.00,,CLR,0.00,VWS V14.01,2013-03-18 10:04:00,
2013-03-18 03:09:00,40.1,34.8,29.96,ESE,115,4.5,4.5,81,0.00,,CLR,0.00,VWS V14.01,2013-03-18 10:09:00,
2013-03-18 03:14:00,39.7,34.1,29.96,ESE,114,4.5,4.9,80,0.00,,CLR,0.00,VWS V14.01,2013-03-18 10:14:00,
2013-03-18 03:19:00,39.7,34.7,29.96,ESE,115,3.6,4.0,82,0.00,,CLR,0.00,VWS V14.01,2013-03-18 10:19:00,
2013-03-18 03:24:00,39.9,34.9,29.96,ESE,114,2.7,3.6,82,0.00,,CLR,0.00,VWS V14.01,2013-03-18 10:24:00,
2013-03-18 03:29:00,39.7,34.7,29.96,ESE,114,3.6,4.0,82,0.00,,CLR,0.00,VWS V14.01,2013-03-18 10:29:00,
2013-03-18 03:34:00,39.4,33.7,29.96,ESE,115,4.5,4.5,80,0.00,,CLR,0.00,VWS V14.01,2013-03-18 10:34:00,
2013-03-18 03:39:00,39.6,34.5,29.96,ESE,114,4.0,4.0,82,0.00,,CLR,0.00,VWS V14.01,2013-03-18 10:39:00,
2013-03-18 03:44:00,39.9,35.5,29.96,ESE,115,3.6,4.0,84,0.00,,CLR,0.00,VWS V14.01,2013-03-18 10:44:00,
2013-03-18 03:49:00,39.9,35.5,29.96,ESE,114,2.7,3.1,84,0.00,,CLR,0.00,VWS V14.01,2013-03-18 10:49:00,
2013-03-18 03:54:00,39.4,34.7,29.96,ESE,115,3.6,3.6,83,0.00,,CLR,0.00,VWS V14.01,2013-03-18 10:54:00,
2013-03-18 03:59:00,38.8,32.6,29.96,ESE,115,4.0,4.5,78,0.00,,CLR,0.00,VWS V14.01,2013-03-18 10:59:00,
2013-03-18 04:05:00,39.2,34.2,29.96,ESE,115,3.1,3.1,82,0.00,,CLR,0.00,VWS V14.01,2013-03-18 11:05:00,
2013-03-18 04:10:00,39.0,34.3,29.96,ESE,114,3.6,3.6,83,0.00,,CLR,0.00,VWS V14.01,2013-03-18 11:10:00,
2013-03-18 04:15:00,38.3,33.0,29.96,ESE,115,4.0,4.0,81,0.00,,CLR,0.00,VWS V14.01,2013-03-18 11:15:00,
2013-03-18 04:20:00,38.7,33.7,29.96,ESE,114,4.0,4.0,82,0.00,,CLR,0.00,VWS V14.01,2013-03-18 11:20:00,
2013-03-18 04:25:00,38.8,34.4,29.96,ESE,114,3.6,3.6,84,0.00,,CLR,0.00,VWS V14.01,2013-03-18 11:25:00,
2013-03-18 04:30:00,38.7,34.2,29.96,ESE,115,3.6,3.6,84,0.00,,CLR,0.00,VWS V14.01,2013-03-18 11:30:00,
2013-03-18 04:35:00,38.7,34.2,29.96,ESE,115,3.6,4.0,84,0.00,,CLR,0.00,VWS V14.01,2013-03-18 11:35:00,
2013-03-18 04:40:00,38.8,34.7,29.96,ESE,115,3.1,3.6,85,0.00,,CLR,0.00,VWS V14.01,2013-03-18 11:40:00,
2013-03-18 04:45:00,38.8,34.7,29.93,ESE,114,3.6,3.6,85,0.00,,CLR,0.00,VWS V14.01,2013-03-18 11:45:00,
2013-03-18 04:50:00,38.1,33.7,29.93,ESE,114,3.1,3.6,84,0.00,,CLR,0.00,VWS V14.01,2013-03-18 11:50:00,
2013-03-18 04:55:00,38.1,33.7,29.93,ESE,115,3.6,4.0,84,0.00,,CLR,0.00,VWS V14.01,2013-03-18 11:55:00,
2013-03-18 05:00:00,38.1,34.0,29.93,ESE,115,3.1,3.6,85,0.00,,CLR,0.00,VWS V14.01,2013-03-18 12:00:00,
2013-03-18 05:05:00,37.6,33.2,29.93,ESE,115,3.6,4.0,84,0.00,,CLR,0.00,VWS V14.01,2013-03-18 12:05:00,
2013-03-18 05:11:00,37.4,33.0,29.93,ESE,115,4.0,4.0,84,0.00,,CLR,0.00,VWS V14.01,2013-03-18 12:11:00,
2013-03-18 05:17:00,37.4,33.3,29.96,ESE,115,4.0,4.5,85,0.00,,CLR,0.00,VWS V14.01,2013-03-18 12:17:00,
2013-03-18 05:22:00,37.4,33.6,29.96,ESE,114,4.0,4.0,86,0.00,,CLR,0.00,VWS V14.01,2013-03-18 12:22:00,
2013-03-18 05:27:00,37.6,34.1,29.96,ESE,115,2.7,3.1,87,0.00,,CLR,0.00,VWS V14.01,2013-03-18 12:27:00,
2013-03-18 05:32:00,37.9,34.7,29.96,ESE,115,3.1,3.6,88,0.00,,CLR,0.00,VWS V14.01,2013-03-18 12:32:00,
2013-03-18 05:37:00,38.1,34.9,29.96,ESE,115,4.0,4.0,88,0.00,,CLR,0.00,VWS V14.01,2013-03-18 12:37:00,
2013-03-18 05:42:00,37.9,34.4,29.96,ESE,114,3.6,3.6,87,0.00,,CLR,0.00,VWS V14.01,2013-03-18 12:42:00,
2013-03-18 05:47:00,37.9,34.4,29.96,ESE,114,3.1,3.1,87,0.00,,CLR,0.00,VWS V14.01,2013-03-18 12:47:00,
2013-03-18 05:52:00,38.1,34.6,29.96,ESE,114,0.0,0.0,87,0.00,,CLR,0.00,VWS V14.01,2013-03-18 12:52:00,
2013-03-18 05:57:00,37.4,33.6,29.96,ESE,114,4.0,4.0,86,0.00,,CLR,0.00,VWS V14.01,2013-03-18 12:57:00,
2013-03-18 06:02:00,36.7,32.3,29.96,ESE,114,4.0,4.5,84,0.00,,CLR,0.00,VWS V14.01,2013-03-18 13:02:00,
2013-03-18 06:07:00,36.9,32.8,29.96,ESE,114,4.0,4.9,85,0.00,,CLR,0.00,VWS V14.01,2013-03-18 13:07:00,
2013-03-18 06:12:00,37.4,33.9,29.96,ESE,115,3.1,3.6,87,0.00,,CLR,0.00,VWS V14.01,2013-03-18 13:12:00,
2013-03-18 06:18:00,37.4,34.2,29.96,ESE,115,3.1,4.0,88,0.00,,CLR,0.00,VWS V14.01,2013-03-18 13:18:00,
2013-03-18 06:23:00,37.2,33.7,29.96,ESE,114,3.6,4.0,87,0.00,,CLR,0.00,VWS V14.01,2013-03-18 13:23:00,
2013-03-18 06:28:00,37.4,33.9,29.96,ESE,114,3.1,3.6,87,0.00,,CLR,0.00,VWS V14.01,2013-03-18 13:28:00,
2013-03-18 06:33:00,36.7,32.9,29.96,ESE,114,3.6,4.5,86,0.00,,CLR,0.00,VWS V14.01,2013-03-18 13:33:00,
2013-03-18 06:38:00,36.5,32.7,29.96,ESE,114,3.1,4.0,86,0.00,,CLR,0.00,VWS V14.01,2013-03-18 13:38:00,
2013-03-18 06:43:00,36.7,32.9,29.96,ESE,115,3.1,3.6,86,0.00,,CLR,0.00,VWS V14.01,2013-03-18 13:43:00,
2013-03-18 06:48:00,36.9,33.4,29.96,ESE,114,3.1,3.6,87,0.00,,CLR,0.00,VWS V14.01,2013-03-18 13:48:00,
2013-03-18 06:53:00,36.9,33.4,29.96,ESE,115,4.0,4.0,87,0.00,,CLR,0.00,VWS V14.01,2013-03-18 13:53:00,
2013-03-18 06:58:00,36.5,33.0,29.96,ESE,114,3.6,3.6,87,0.00,,CLR,0.00,VWS V14.01,2013-03-18 13:58:00,
2013-03-18 07:03:00,36.5,33.0,29.96,ESE,115,3.6,3.6,87,0.00,,CLR,0.00,VWS V14.01,2013-03-18 14:03:00,
2013-03-18 07:08:00,36.7,33.2,29.96,ESE,114,3.1,4.0,87,0.00,,CLR,0.00,VWS V14.01,2013-03-18 14:08:00,
2013-03-18 07:13:00,36.7,33.5,29.96,ESE,115,4.0,4.5,88,0.00,,CLR,0.00,VWS V14.01,2013-03-18 14:13:00,
2013-03-18 07:19:00,36.9,33.7,29.96,ESE,114,3.6,4.0,88,0.00,,CLR,0.00,VWS V14.01,2013-03-18 14:19:00,
2013-03-18 07:24:00,36.7,33.5,29.96,ESE,114,4.5,4.5,88,0.00,,CLR,0.00,VWS V14.01,2013-03-18 14:24:00,
2013-03-18 07:29:00,36.9,33.7,29.96,ESE,115,3.1,4.0,88,0.00,,CLR,0.00,VWS V14.01,2013-03-18 14:29:00,
2013-03-18 07:34:00,37.0,33.8,29.99,ESE,115,3.6,4.0,88,0.00,,CLR,0.00,VWS V14.01,2013-03-18 14:34:00,
2013-03-18 07:39:00,37.2,34.3,29.99,ESE,115,3.6,4.0,89,0.00,,CLR,0.00,VWS V14.01,2013-03-18 14:39:00,
2013-03-18 07:44:00,37.2,34.0,29.99,ESE,114,3.1,3.6,88,0.00,,CLR,0.00,VWS V14.01,2013-03-18 14:44:00,
2013-03-18 07:50:00,37.8,34.5,29.99,ESE,115,3.6,4.0,88,0.00,,CLR,0.00,VWS V14.01,2013-03-18 14:50:00,
2013-03-18 07:55:00,38.8,35.6,29.99,ESE,114,3.1,3.6,88,0.00,,CLR,0.00,VWS V14.01,2013-03-18 14:55:00,
2013-03-18 08:00:00,39.9,36.7,29.99,ESE,115,0.0,0.0,88,0.00,,CLR,0.00,VWS V14.01,2013-03-18 15:00:00,
2013-03-18 08:05:00,40.5,36.0,29.99,ESE,114,0.0,3.1,84,0.00,,CLR,0.00,VWS V14.01,2013-03-18 15:05:00,
2013-03-18 08:10:00,41.2,35.2,29.99,ESE,114,0.0,0.0,79,0.00,,CLR,0.00,VWS V14.01,2013-03-18 15:10:00,
2013-03-18 08:15:00,41.7,35.0,29.99,ESE,112,0.0,0.0,77,0.00,,CLR,0.00,VWS V14.01,2013-03-18 15:15:00,
2013-03-18 08:20:00,42.4,35.1,29.99,ESE,112,0.0,0.0,75,0.00,,CLR,0.00,VWS V14.01,2013-03-18 15:20:00,
2013-03-18 08:26:00,43.3,35.6,29.99,ESE,112,0.0,0.0,74,0.00,,CLR,0.00,VWS V14.01,2013-03-18 15:26:00,
2013-03-18 08:32:00,44.2,35.8,29.99,ESE,112,0.0,0.0,72,0.00,,CLR,0.00,VWS V14.01,2013-03-18 15:32:00,
2013-03-18 08:37:00,45.3,37.2,29.99,ESE,112,0.0,0.0,73,0.00,,CLR,0.00,VWS V14.01,2013-03-18 15:37:00,
2013-03-18 08:42:00,46.6,38.8,29.99,ESE,112,0.0,0.0,74,0.00,,CLR,0.00,VWS V14.01,2013-03-18 15:42:00,
2013-03-18 08:47:00,47.5,38.9,29.99,ESE,111,0.0,0.0,72,0.00,,CLR,0.00,VWS V14.01,2013-03-18 15:47:00,
2013-03-18 08:52:00,48.7,40.5,29.99,ESE,112,0.0,0.0,73,0.00,,CLR,0.00,VWS V14.01,2013-03-18 15:52:00,
2013-03-18 08:57:00,49.3,40.3,29.99,ESE,112,0.0,0.0,71,0.00,,CLR,0.00,VWS V14.01,2013-03-18 15:57:00,
2013-03-18 09:02:00,49.6,33.2,29.99,ESE,112,0.0,0.0,53,0.00,,CLR,0.00,VWS V14.01,2013-03-18 16:02:00,
2013-03-18 09:07:00,50.5,33.6,29.99,ESE,112,2.7,4.0,52,0.00,,CLR,0.00,VWS V14.01,2013-03-18 16:07:00,
2013-03-18 09:12:00,51.4,33.9,29.99,ESE,112,3.1,4.0,51,0.00,,CLR,0.00,VWS V14.01,2013-03-18 16:12:00,
2013-03-18 09:17:00,52.3,34.8,29.99,ESE,111,3.6,3.6,51,0.00,,CLR,0.00,VWS V14.01,2013-03-18 16:17:00,
2013-03-18 09:22:00,53.1,35.4,29.99,ESE,111,3.1,3.6,51,0.00,,CLR,0.00,VWS V14.01,2013-03-18 16:22:00,
2013-03-18 09:28:00,53.8,34.0,29.99,ESE,112,3.1,4.0,47,0.00,,CLR,0.00,VWS V14.01,2013-03-18 16:28:00,
2013-03-18 09:33:00,54.5,33.6,29.99,ESE,112,3.1,3.6,45,0.00,,CLR,0.00,VWS V14.01,2013-03-18 16:33:00,
2013-03-18 09:38:00,55.6,35.2,29.99,ESE,111,4.0,5.4,46,0.00,,CLR,0.00,VWS V14.01,2013-03-18 16:38:00,
2013-03-18 09:43:00,56.5,35.4,29.99,ESE,114,4.9,4.9,45,0.00,,CLR,0.00,VWS V14.01,2013-03-18 16:43:00,
2013-03-18 09:48:00,57.2,33.7,29.99,ESE,113,4.0,4.9,41,0.00,,CLR,0.00,VWS V14.01,2013-03-18 16:48:00,
2013-03-18 09:53:00,57.9,32.5,29.99,ESE,112,3.6,4.5,38,0.00,,CLR,0.00,VWS V14.01,2013-03-18 16:53:00,
2013-03-18 09:58:00,58.6,31.1,29.99,ESE,113,0.0,0.0,35,0.00,,CLR,0.00,VWS V14.01,2013-03-18 16:58:00,
2013-03-18 10:03:00,59.5,32.6,29.99,ESE,113,0.0,0.0,36,0.00,,CLR,0.00,VWS V14.01,2013-03-18 17:03:00,
2013-03-18 10:08:00,60.6,33.5,29.99,ESE,113,0.0,0.0,36,0.00,,CLR,0.00,VWS V14.01,2013-03-18 17:08:00,
2013-03-18 10:13:00,61.3,33.5,29.99,ESE,111,0.0,3.1,35,0.00,,CLR,0.00,VWS V14.01,2013-03-18 17:13:00,
2013-03-18 10:18:00,62.2,33.5,29.99,ESE,113,4.5,4.5,34,0.00,,CLR,0.00,VWS V14.01,2013-03-18 17:18:00,
2013-03-18 10:23:00,62.8,30.1,29.99,West,266,4.9,5.8,29,0.00,,CLR,0.00,VWS V14.01,2013-03-18 17:23:00,
2013-03-18 10:29:00,63.1,27.7,29.99,West,270,0.0,2.7,26,0.00,,CLR,0.00,VWS V14.01,2013-03-18 17:29:00,
2013-03-18 10:34:00,63.7,27.2,29.99,West,271,0.0,0.0,25,0.00,,CLR,0.00,VWS V14.01,2013-03-18 17:34:00,
2013-03-18 10:39:00,64.2,26.7,29.99,West,269,5.8,5.8,24,0.00,,CLR,0.00,VWS V14.01,2013-03-18 17:39:00,
2013-03-18 10:44:00,64.9,28.3,29.99,WSW,244,6.9,6.9,25,0.00,,CLR,0.00,VWS V14.01,2013-03-18 17:44:00,
2013-03-18 10:49:00,65.1,28.5,29.99,SW,227,8.7,8.7,25,0.00,,CLR,0.00,VWS V14.01,2013-03-18 17:49:00,
2013-03-18 10:54:00,65.3,28.6,29.99,WSW,242,2.7,4.0,25,0.00,,CLR,0.00,VWS V14.01,2013-03-18 17:54:00,
2013-03-18 10:59:00,65.5,27.8,29.99,SW,229,5.8,6.7,24,0.00,,CLR,0.00,VWS V14.01,2013-03-18 17:59:00,
2013-03-18 11:04:00,65.7,27.9,29.99,WSW,256,7.8,7.8,24,0.00,,CLR,0.00,VWS V14.01,2013-03-18 18:04:00,
2013-03-18 11:09:00,65.5,27.8,29.99,SW,235,8.7,10.1,24,0.00,,CLR,0.00,VWS V14.01,2013-03-18 18:09:00,
2013-03-18 11:14:00,66.2,29.4,29.99,SW,225,6.9,7.8,25,0.00,,CLR,0.00,VWS V14.01,2013-03-18 18:14:00,
2013-03-18 11:19:00,66.6,28.7,29.99,West,280,6.9,9.2,24,0.00,,CLR,0.00,VWS V14.01,2013-03-18 18:19:00,
2013-03-18 11:24:00,66.6,28.7,29.99,West,275,6.9,7.4,24,0.00,,CLR,0.00,VWS V14.01,2013-03-18 18:24:00,
2013-03-18 11:30:00,66.9,29.0,29.99,WNW,299,7.8,8.3,24,0.00,,CLR,0.00,VWS V14.01,2013-03-18 18:30:00,
2013-03-18 11:35:00,67.1,28.1,29.99,West,266,7.4,8.7,23,0.00,,CLR,0.00,VWS V14.01,2013-03-18 18:35:00,
2013-03-18 11:40:00,67.5,28.4,29.99,WSW,242,5.4,8.7,23,0.00,,CLR,0.00,VWS V14.01,2013-03-18 18:40:00,
2013-03-18 11:45:00,67.6,28.5,29.99,South,175,3.6,6.9,23,0.00,,CLR,0.00,VWS V14.01,2013-03-18 18:45:00,
2013-03-18 11:50:00,68.0,28.9,29.99,West,268,9.2,10.1,23,0.00,,CLR,0.00,VWS V14.01,2013-03-18 18:50:00,
2013-03-18 11:55:00,68.0,28.9,29.99,West,275,6.3,8.3,23,0.00,,CLR,0.00,VWS V14.01,2013-03-18 18:55:00,
2013-03-18 12:00:00,67.5,28.4,29.99,SW,236,6.7,9.2,23,0.00,,CLR,0.00,VWS V14.01,2013-03-18 19:00:00,
2013-03-18 12:05:00,67.3,29.3,29.99,SW,234,6.3,7.4,24,0.00,,CLR,0.00,VWS V14.01,2013-03-18 19:05:00,
2013-03-18 12:10:00,67.6,28.5,29.99,SW,230,6.9,8.3,23,0.00,,CLR,0.00,VWS V14.01,2013-03-18 19:10:00,
2013-03-18 12:15:00,68.0,28.9,29.99,West,277,6.9,7.4,23,0.00,,CLR,0.00,VWS V14.01,2013-03-18 19:15:00,
2013-03-18 12:20:00,68.7,29.5,29.99,SW,226,0.0,5.8,23,0.00,,CLR,0.00,VWS V14.01,2013-03-18 19:20:00,
2013-03-18 12:25:00,68.5,29.3,29.99,West,276,8.7,9.2,23,0.00,,CLR,0.00,VWS V14.01,2013-03-18 19:25:00,
2013-03-18 12:30:00,68.5,29.3,29.99,WSW,242,5.8,6.9,23,0.00,,CLR,0.00,VWS V14.01,2013-03-18 19:30:00,
2013-03-18 12:36:00,68.7,29.5,29.99,SW,234,4.5,6.3,23,0.00,,CLR,0.00,VWS V14.01,2013-03-18 19:36:00,
2013-03-18 12:42:00,68.7,29.5,29.99,SW,225,5.8,7.8,23,0.00,,CLR,0.00,VWS V14.01,2013-03-18 19:42:00,
2013-03-18 12:47:00,69.1,29.8,29.99,West,276,10.1,10.5,23,0.00,,CLR,0.00,VWS V14.01,2013-03-18 19:47:00,
2013-03-18 12:52:00,69.3,29.9,29.99,West,278,9.6,11.0,23,0.00,,CLR,0.00,VWS V14.01,2013-03-18 19:52:00,
2013-03-18 12:57:00,68.7,29.5,29.99,West,265,5.4,8.3,23,0.00,,CLR,0.00,VWS V14.01,2013-03-18 19:57:00,
2013-03-18 13:02:00,69.3,28.8,29.99,WNW,288,9.2,9.2,22,0.00,,CLR,0.00,VWS V14.01,2013-03-18 20:02:00,
2013-03-18 13:07:00,69.4,29.0,29.99,West,271,10.5,10.5,22,0.00,,CLR,0.00,VWS V14.01,2013-03-18 20:07:00,
2013-03-18 13:13:00,69.1,28.7,29.99,SW,218,9.6,9.6,22,0.00,,CLR,0.00,VWS V14.01,2013-03-18 20:13:00,
2013-03-18 13:18:00,68.7,29.5,29.99,West,271,6.7,9.6,23,0.00,,CLR,0.00,VWS V14.01,2013-03-18 20:18:00,
2013-03-18 13:23:00,68.7,29.5,29.99,West,268,8.7,12.1,23,0.00,,CLR,0.00,VWS V14.01,2013-03-18 20:23:00,
2013-03-18 13:28:00,68.5,28.2,29.99,West,264,10.5,11.6,22,0.00,,CLR,0.00,VWS V14.01,2013-03-18 20:28:00,
2013-03-18 13:33:00,68.4,28.1,29.99,WNW,289,8.7,11.0,22,0.00,,CLR,0.00,VWS V14.01,2013-03-18 20:33:00,
2013-03-18 13:39:00,68.2,27.9,29.99,WNW,284,6.7,11.2,22,0.00,,CLR,0.00,VWS V14.01,2013-03-18 20:39:00,
2013-03-18 13:44:00,67.3,27.2,29.99,SW,235,8.3,9.2,22,0.00,,CLR,0.00,VWS V14.01,2013-03-18 20:44:00,
2013-03-18 13:49:00,67.3,28.2,29.99,WNW,283,11.0,11.0,23,0.00,,CLR,0.00,VWS V14.01,2013-03-18 20:49:00,
2013-03-18 13:54:00,67.6,28.5,29.99,West,270,7.8,9.2,23,0.00,,CLR,0.00,VWS V14.01,2013-03-18 20:54:00,
2013-03-18 13:59:00,67.8,28.7,29.99,SSW,210,8.7,8.7,23,0.00,,CLR,0.00,VWS V14.01,2013-03-18 20:59:00,
2013-03-18 14:04:00,68.2,29.0,29.96,WNW,303,4.0,8.3,23,0.00,,CLR,0.00,VWS V14.01,2013-03-18 21:04:00,
2013-03-18 14:09:00,67.8,28.7,29.96,WSW,244,5.8,6.9,23,0.00,,CLR,0.00,VWS V14.01,2013-03-18 21:09:00,
2013-03-18 14:14:00,67.8,28.7,29.96,West,281,7.4,9.6,23,0.00,,CLR,0.00,VWS V14.01,2013-03-18 21:14:00,
2013-03-18 14:19:00,68.0,28.9,29.96,SW,235,8.3,9.2,23,0.00,,CLR,0.00,VWS V14.01,2013-03-18 21:19:00,
2013-03-18 14:24:00,68.2,29.0,29.96,SSW,203,4.9,5.4,23,0.00,,CLR,0.00,VWS V14.01,2013-03-18 21:24:00,
2013-03-18 14:29:00,68.4,29.1,29.96,West,267,8.7,9.2,23,0.00,,CLR,0.00,VWS V14.01,2013-03-18 21:29:00,
2013-03-18 14:34:00,68.5,29.3,29.96,WSW,240,7.8,9.6,23,0.00,,CLR,0.00,VWS V14.01,2013-03-18 21:34:00,
2013-03-18 14:39:00,68.5,29.3,29.96,West,280,8.3,8.3,23,0.00,,CLR,0.00,VWS V14.01,2013-03-18 21:39:00,
2013-03-18 14:45:00,68.7,29.5,29.96,West,266,5.4,6.9,23,0.00,,CLR,0.00,VWS V14.01,2013-03-18 21:45:00,
2013-03-18 14:50:00,68.2,29.0,29.96,SW,234,3.1,4.9,23,0.00,,CLR,0.00,VWS V14.01,2013-03-18 21:50:00,
2013-03-18 14:56:00,68.4,29.1,29.96,SW,232,5.4,6.9,23,0.00,,CLR,0.00,VWS V14.01,2013-03-18 21:56:00,
2013-03-18 15:02:00,68.4,29.1,29.96,West,274,5.8,5.8,23,0.00,,CLR,0.00,VWS V14.01,2013-03-18 22:02:00,
2013-03-18 15:08:00,68.5,29.3,29.96,WSW,249,5.4,6.3,23,0.00,,CLR,0.00,VWS V14.01,2013-03-18 22:08:00,
2013-03-18 15:13:00,68.4,29.1,29.96,WSW,254,4.9,5.8,23,0.00,,CLR,0.00,VWS V14.01,2013-03-18 22:13:00,
2013-03-18 15:18:00,68.4,29.1,29.96,WSW,246,2.7,2.7,23,0.00,,CLR,0.00,VWS V14.01,2013-03-18 22:18:00,
2013-03-18 15:23:00,68.4,29.1,29.96,WNW,288,4.5,4.9,23,0.00,,CLR,0.00,VWS V14.01,2013-03-18 22:23:00,
2013-03-18 15:28:00,67.5,28.4,29.96,WSW,242,5.8,7.4,23,0.00,,CLR,0.00,VWS V14.01,2013-03-18 22:28:00,
2013-03-18 15:33:00,67.3,28.2,29.96,West,273,6.9,7.8,23,0.00,,CLR,0.00,VWS V14.01,2013-03-18 22:33:00,
2013-03-18 15:38:00,67.5,28.4,29.96,West,281,8.3,9.2,23,0.00,,CLR,0.00,VWS V14.01,2013-03-18 22:38:00,
2013-03-18 15:43:00,67.8,28.7,29.96,NNW,327,0.0,0.0,23,0.00,,CLR,0.00,VWS V14.01,2013-03-18 22:43:00,
2013-03-18 15:48:00,67.5,28.4,29.96,West,276,5.8,7.4,23,0.00,,CLR,0.00,VWS V14.01,2013-03-18 22:48:00,
2013-03-18 15:54:00,67.3,28.2,29.96,NW,320,3.6,4.9,23,0.00,,CLR,0.00,VWS V14.01,2013-03-18 22:54:00,
2013-03-18 15:59:00,67.3,28.2,29.96,SW,236,4.5,7.4,23,0.00,,CLR,0.00,VWS V14.01,2013-03-18 22:59:00,
2013-03-18 16:04:00,67.3,28.2,29.96,WSW,251,5.4,6.9,23,0.00,,CLR,0.00,VWS V14.01,2013-03-18 23:04:00,
2013-03-18 16:09:00,67.3,28.2,29.96,WSW,252,3.6,5.4,23,0.00,,CLR,0.00,VWS V14.01,2013-03-18 23:09:00,
2013-03-18 16:14:00,67.3,28.2,29.96,West,260,0.0,3.6,23,0.00,,CLR,0.00,VWS V14.01,2013-03-18 23:14:00,
2013-03-18 16:19:00,67.1,28.1,29.96,WNW,293,6.9,6.9,23,0.00,,CLR,0.00,VWS V14.01,2013-03-18 23:19:00,
2013-03-18 16:24:00,67.1,29.1,29.96,WNW,284,5.4,6.7,24,0.00,,CLR,0.00,VWS V14.01,2013-03-18 23:24:00,
2013-03-18 16:29:00,66.9,29.0,29.96,WSW,247,2.7,4.5,24,0.00,,CLR,0.00,VWS V14.01,2013-03-18 23:29:00,
2013-03-18 16:34:00,66.9,29.0,29.96,WSW,237,5.8,6.3,24,0.00,,CLR,0.00,VWS V14.01,2013-03-18 23:34:00,
2013-03-18 16:39:00,66.6,28.7,29.96,WSW,255,4.9,6.9,24,0.00,,CLR,0.00,VWS V14.01,2013-03-18 23:39:00,
2013-03-18 16:44:00,66.6,28.7,29.96,West,261,5.4,6.7,24,0.00,,CLR,0.00,VWS V14.01,2013-03-18 23:44:00,
2013-03-18 16:49:00,66.4,28.5,29.96,West,272,4.9,5.8,24,0.00,,CLR,0.00,VWS V14.01,2013-03-18 23:49:00,
2013-03-18 16:54:00,66.4,28.5,29.96,West,261,3.1,3.1,24,0.00,,CLR,0.00,VWS V14.01,2013-03-18 23:54:00,
2013-03-18 17:00:00,66.6,28.7,29.96,WSW,258,4.9,5.4,24,0.00,,CLR,0.00,VWS V14.01,2013-03-19 00:00:00,
2013-03-18 17:06:00,66.6,28.7,29.96,WSW,250,0.0,2.7,24,0.00,,CLR,0.00,VWS V14.01,2013-03-19 00:06:00,
2013-03-18 17:12:00,66.6,28.7,29.96,WSW,247,3.1,4.0,24,0.00,,CLR,0.00,VWS V14.01,2013-03-19 00:12:00,
2013-03-18 17:17:00,66.2,27.3,29.96,WSW,247,2.7,4.5,23,0.00,,CLR,0.00,VWS V14.01,2013-03-19 00:17:00,
2013-03-18 17:23:00,65.8,27.0,29.96,WSW,247,0.0,3.1,23,0.00,,CLR,0.00,VWS V14.01,2013-03-19 00:23:00,
2013-03-18 17:28:00,66.2,27.3,29.96,WSW,247,0.0,0.0,23,0.00,,CLR,0.00,VWS V14.01,2013-03-19 00:28:00,
2013-03-18 17:33:00,66.0,27.2,29.96,WSW,247,0.0,0.0,23,0.00,,CLR,0.00,VWS V14.01,2013-03-19 00:33:00,
2013-03-18 17:38:00,65.8,28.1,29.96,WSW,247,0.0,0.0,24,0.00,,CLR,0.00,VWS V14.01,2013-03-19 00:38:00,
2013-03-18 17:43:00,65.8,27.0,29.96,WSW,246,0.0,0.0,23,0.00,,CLR,0.00,VWS V14.01,2013-03-19 00:43:00,
2013-03-18 17:48:00,65.8,27.0,29.96,WSW,247,0.0,0.0,23,0.00,,CLR,0.00,VWS V14.01,2013-03-19 00:48:00,
2013-03-18 17:53:00,66.0,28.2,29.96,WSW,247,0.0,0.0,24,0.00,,CLR,0.00,VWS V14.01,2013-03-19 00:53:00,
2013-03-18 17:58:00,65.7,27.9,29.96,WSW,246,0.0,0.0,24,0.00,,CLR,0.00,VWS V14.01,2013-03-19 00:58:00,
2013-03-18 18:04:00,65.1,27.5,29.96,WSW,247,0.0,0.0,24,0.00,,CLR,0.00,VWS V14.01,2013-03-19 01:04:00,
2013-03-18 18:09:00,64.9,28.3,29.96,WSW,247,0.0,0.0,25,0.00,,CLR,0.00,VWS V14.01,2013-03-19 01:09:00,
2013-03-18 18:14:00,64.8,28.1,29.96,WSW,247,0.0,0.0,25,0.00,,CLR,0.00,VWS V14.01,2013-03-19 01:14:00,
2013-03-18 18:19:00,64.6,28.0,29.96,WSW,247,0.0,0.0,25,0.00,,CLR,0.00,VWS V14.01,2013-03-19 01:19:00,
2013-03-18 18:25:00,64.4,28.8,29.96,WSW,247,0.0,0.0,26,0.00,,CLR,0.00,VWS V14.01,2013-03-19 01:25:00,
2013-03-18 18:30:00,64.0,28.5,29.96,WSW,247,0.0,0.0,26,0.00,,CLR,0.00,VWS V14.01,2013-03-19 01:30:00,
2013-03-18 18:35:00,63.3,31.4,29.96,WSW,246,0.0,0.0,30,0.00,,CLR,0.00,VWS V14.01,2013-03-19 01:35:00,
2013-03-18 18:40:00,62.6,33.9,29.96,WSW,247,2.7,3.1,34,0.00,,CLR,0.00,VWS V14.01,2013-03-19 01:40:00,
2013-03-18 18:45:00,61.9,33.2,29.96,WSW,247,4.0,4.0,34,0.00,,CLR,0.00,VWS V14.01,2013-03-19 01:45:00,
2013-03-18 18:50:00,61.9,33.2,29.93,WSW,247,0.0,0.0,34,0.00,,CLR,0.00,VWS V14.01,2013-03-19 01:50:00,
2013-03-18 18:56:00,61.5,35.0,29.93,WSW,247,0.0,0.0,37,0.00,,CLR,0.00,VWS V14.01,2013-03-19 01:56:00,
2013-03-18 19:02:00,61.2,34.7,29.93,WSW,247,0.0,0.0,37,0.00,,CLR,0.00,VWS V14.01,2013-03-19 02:02:00,
2013-03-18 19:08:00,60.8,34.4,29.93,WSW,247,0.0,0.0,37,0.00,,CLR,0.00,VWS V14.01,2013-03-19 02:08:00,
2013-03-18 19:13:00,60.3,33.9,29.93,WSW,246,0.0,3.1,37,0.00,,CLR,0.00,VWS V14.01,2013-03-19 02:13:00,
2013-03-18 19:18:00,59.9,34.9,29.93,WSW,246,0.0,0.0,39,0.00,,CLR,0.00,VWS V14.01,2013-03-19 02:18:00,
2013-03-18 19:23:00,59.4,35.7,29.93,WSW,246,0.0,0.0,41,0.00,,CLR,0.00,VWS V14.01,2013-03-19 02:23:00,
2013-03-18 19:28:00,58.8,35.8,29.93,WSW,246,0.0,0.0,42,0.00,,CLR,0.00,VWS V14.01,2013-03-19 02:28:00,
2013-03-18 19:33:00,58.6,36.8,29.96,WSW,246,4.0,4.5,44,0.00,,CLR,0.00,VWS V14.01,2013-03-19 02:33:00,
2013-03-18 19:38:00,58.1,35.7,29.96,WSW,240,3.6,4.0,43,0.00,,CLR,0.00,VWS V14.01,2013-03-19 02:38:00,
2013-03-18 19:43:00,57.6,36.4,29.96,WSW,240,4.0,4.5,45,0.00,,CLR,0.00,VWS V14.01,2013-03-19 02:43:00,
2013-03-18 19:48:00,57.6,37.0,29.96,SW,233,2.7,3.1,46,0.00,,CLR,0.00,VWS V14.01,2013-03-19 02:48:00,
2013-03-18 19:53:00,57.4,36.8,29.96,SW,232,3.6,3.6,46,0.00,,CLR,0.00,VWS V14.01,2013-03-19 02:53:00,
2013-03-18 19:58:00,56.7,36.1,29.96,South,172,4.5,4.9,46,0.00,,CLR,0.00,VWS V14.01,2013-03-19 02:58:00,
2013-03-18 20:03:00,56.5,36.5,29.96,SSE,158,4.0,4.9,47,0.00,,CLR,0.00,VWS V14.01,2013-03-19 03:03:00,
2013-03-18 20:08:00,56.7,36.7,29.96,SSE,156,4.9,4.9,47,0.00,,CLR,0.00,VWS V14.01,2013-03-19 03:08:00,
2013-03-18 20:14:00,56.5,36.5,29.96,SSE,155,3.6,4.0,47,0.00,,CLR,0.00,VWS V14.01,2013-03-19 03:14:00,
2013-03-18 20:19:00,56.3,36.3,29.96,SSE,155,4.0,4.5,47,0.00,,CLR,0.00,VWS V14.01,2013-03-19 03:19:00,
2013-03-18 20:24:00,56.1,36.7,29.96,SSE,155,4.5,4.5,48,0.00,,CLR,0.00,VWS V14.01,2013-03-19 03:24:00,
2013-03-18 20:29:00,55.9,36.5,29.96,SSE,155,4.5,4.5,48,0.00,,CLR,0.00,VWS V14.01,2013-03-19 03:29:00,
2013-03-18 20:34:00,55.8,36.9,29.96,SSE,155,3.6,3.6,49,0.00,,CLR,0.00,VWS V14.01,2013-03-19 03:34:00,
2013-03-18 20:39:00,55.9,37.1,29.96,SSE,155,0.0,0.0,49,0.00,,CLR,0.00,VWS V14.01,2013-03-19 03:39:00,
2013-03-18 20:44:00,55.9,37.6,29.96,SSE,155,2.7,2.7,50,0.00,,CLR,0.00,VWS V14.01,2013-03-19 03:44:00,
2013-03-18 20:49:00,55.4,37.1,29.96,SSE,154,4.0,4.0,50,0.00,,CLR,0.00,VWS V14.01,2013-03-19 03:49:00,
2013-03-18 20:55:00,55.0,36.8,29.96,ESE,121,5.4,5.8,50,0.00,,CLR,0.00,VWS V14.01,2013-03-19 03:55:00,
2013-03-18 21:01:00,55.0,37.3,29.96,ESE,119,4.9,5.8,51,0.00,,FEW120,0.00,VWS V14.01,2013-03-19 04:01:00,
2013-03-18 21:02:00,55.0,37.3,29.96,ESE,119,5.4,6.9,51,0.00,,FEW120,0.00,VWS V14.01,2013-03-19 04:02:00,
2013-03-18 21:03:00,54.9,36.6,29.96,ESE,118,5.4,5.8,50,0.00,,FEW120,0.00,VWS V14.01,2013-03-19 04:03:00,
2013-03-18 21:08:00,54.5,36.8,29.96,ESE,122,6.3,6.3,51,0.00,,FEW120,0.00,VWS V14.01,2013-03-19 04:08:00,
2013-03-18 21:13:00,54.5,37.2,29.96,ESE,120,5.8,6.3,52,0.00,,FEW120,0.00,VWS V14.01,2013-03-19 04:13:00,
2013-03-18 21:18:00,54.3,37.6,29.99,ESE,120,4.5,4.5,53,0.00,,FEW120,0.00,VWS V14.01,2013-03-19 04:18:00,
2013-03-18 21:23:00,54.1,37.4,29.99,ESE,120,4.0,4.5,53,0.00,,FEW120,0.00,VWS V14.01,2013-03-19 04:23:00,
2013-03-18 21:29:00,54.1,37.4,29.99,ESE,120,3.6,4.0,53,0.00,,FEW120,0.00,VWS V14.01,2013-03-19 04:29:00,
2013-03-18 21:34:00,54.1,37.4,29.99,ESE,119,3.6,3.6,53,0.00,,FEW120,0.00,VWS V14.01,2013-03-19 04:34:00,
2013-03-18 21:39:00,54.1,37.4,29.99,ESE,119,4.5,4.5,53,0.00,,FEW120,0.00,VWS V14.01,2013-03-19 04:39:00,
2013-03-18 21:44:00,54.1,37.4,29.99,ESE,120,4.0,4.5,53,0.00,,FEW120,0.00,VWS V14.01,2013-03-19 04:44:00,
2013-03-18 21:49:00,54.0,37.7,29.99,ESE,120,3.1,4.0,54,0.00,,FEW120,0.00,VWS V14.01,2013-03-19 04:49:00,
2013-03-18 21:54:00,53.6,37.4,29.99,ESE,119,4.5,4.5,54,0.00,,FEW120,0.00,VWS V14.01,2013-03-19 04:54:00,
2013-03-18 21:59:00,53.2,37.5,29.99,ESE,120,4.5,5.4,55,0.00,,FEW120,0.00,VWS V14.01,2013-03-19 04:59:00,
2013-03-18 22:05:00,53.1,37.8,29.99,ESE,120,3.1,4.0,56,0.00,,SCT120,0.00,VWS V14.01,2013-03-19 05:05:00,
2013-03-18 22:10:00,52.7,37.9,29.99,ESE,119,4.9,4.9,57,0.00,,SCT120,0.00,VWS V14.01,2013-03-19 05:10:00,
2013-03-18 22:15:00,52.5,38.2,29.99,ESE,119,4.5,5.4,58,0.00,,SCT120,0.00,VWS V14.01,2013-03-19 05:15:00,
2013-03-18 22:20:00,52.7,37.9,29.99,ESE,119,4.0,4.5,57,0.00,,SCT120,0.00,VWS V14.01,2013-03-19 05:20:00,
2013-03-18 22:25:00,52.7,38.3,29.99,ESE,119,4.0,4.9,58,0.00,,SCT120,0.00,VWS V14.01,2013-03-19 05:25:00,
2013-03-18 22:30:00,52.7,37.9,29.99,ESE,119,4.5,4.9,57,0.00,,SCT120,0.00,VWS V14.01,2013-03-19 05:30:00,
2013-03-18 22:35:00,52.7,37.9,29.99,ESE,121,4.5,4.5,57,0.00,,SCT120,0.00,VWS V14.01,2013-03-19 05:35:00,
2013-03-18 22:40:00,52.9,38.1,29.99,ESE,118,3.6,4.0,57,0.00,,SCT120,0.00,VWS V14.01,2013-03-19 05:40:00,
2013-03-18 22:45:00,52.7,37.9,29.99,ESE,118,3.6,4.0,57,0.00,,SCT120,0.00,VWS V14.01,2013-03-19 05:45:00,
2013-03-18 22:50:00,52.9,38.1,29.99,ESE,118,4.0,4.5,57,0.00,,SCT120,0.00,VWS V14.01,2013-03-19 05:50:00,
2013-03-18 22:55:00,52.9,38.1,29.99,ESE,118,4.0,5.4,57,0.00,,SCT120,0.00,VWS V14.01,2013-03-19 05:55:00,
2013-03-18 23:00:00,53.1,38.2,29.99,ESE,118,3.6,4.5,57,0.00,,OVC080,0.00,VWS V14.01,2013-03-19 06:00:00,
2013-03-18 23:05:00,52.9,38.1,29.99,ESE,118,3.1,3.6,57,0.00,,OVC080,0.00,VWS V14.01,2013-03-19 06:05:00,
2013-03-18 23:11:00,53.1,38.7,29.99,ESE,118,3.1,4.0,58,0.00,,OVC080,0.00,VWS V14.01,2013-03-19 06:11:00,
2013-03-18 23:17:00,52.9,38.5,29.99,ESE,118,3.6,4.5,58,0.00,,OVC080,0.00,VWS V14.01,2013-03-19 06:17:00,
2013-03-18 23:22:00,52.9,38.5,29.99,ESE,118,4.0,4.0,58,0.00,,OVC080,0.00,VWS V14.01,2013-03-19 06:22:00,
2013-03-18 23:27:00,52.9,39.0,29.99,ESE,118,3.6,4.0,59,0.00,,OVC080,0.00,VWS V14.01,2013-03-19 06:27:00,
2013-03-18 23:32:00,52.9,39.0,29.99,ESE,118,3.1,4.0,59,0.00,,OVC080,0.00,VWS V14.01,2013-03-19 06:32:00,
2013-03-18 23:37:00,53.1,38.7,29.99,ESE,118,3.6,4.0,58,0.00,,OVC080,0.00,VWS V14.01,2013-03-19 06:37:00,
2013-03-18 23:42:00,53.1,38.7,29.99,ESE,119,4.0,4.9,58,0.00,,OVC080,0.00,VWS V14.01,2013-03-19 06:42:00,
2013-03-18 23:47:00,53.1,38.7,29.99,ESE,118,3.6,4.0,58,0.00,,OVC080,0.00,VWS V14.01,2013-03-19 06:47:00,
2013-03-18 23:52:00,52.9,39.0,29.99,ESE,119,4.0,4.5,59,0.00,,OVC080,0.00,VWS V14.01,2013-03-19 06:52:00,
2013-03-18 23:57:00,52.9,39.0,29.99,ESE,118,0.0,0.0,59,0.00,,OVC080,0.00,VWS V14.01,2013-03-19 06:57:00,